• Join FlightAware (Why Join?)
  • Login
  • US Flag 
06:27PM EDT


 

Airport Tracker/Info


-or-


 

Live Flight TrackerFlight Track Log ✈ LBQ792 ✈ 07-May-2013 ✈ KSYR - KROC

Flight Track Log - Related Links

Times and Time Zones

All times are in EDT time to prevent confusion due to time zone crossing. See the LBQ792 flight status page for this flight to view local times or setup timezone preferences in your user account.

Time Position Orientation Groundspeed Altitude Reporting Facility
EDT Latitude Longitude Course Direction KTS MPH feet Rate Location/Type
09:55PM 43.1383 -76.1508 306° West 144 166 1,800  Level Boston Center
09:56PM 43.1403 -76.2136 272° West 185 213 3,000 1,320 Climbing Boston Center
09:57PM 43.1381 -76.2844 268° West 189 217 4,500 1,320 Climbing Boston Center
09:58PM 43.1356 -76.3556 267° West 182 209 5,900 720 Climbing Boston Center
09:59PM 43.1369 -76.4325 271° West 228 262 6,000  Climbing Boston Center
10:00PM 43.1358 -76.5264 269° West 249 287 6,000  Level Boston Center
10:01PM 43.1347 -76.6175 269° West 245 282 6,000  Level Boston Center
10:02PM 43.1322 -76.6797 267° West 253 291 6,000  Level Cleveland Center
10:02PM 43.1328 -76.6967 273° West 251 289 6,000  Level Cleveland Center
10:03PM 43.1319 -76.8022 269° West 247 284 6,000  Level Cleveland Center
10:04PM 43.1289 -76.8961 267° West 245 282 6,000  Level Cleveland Center
10:05PM 43.1297 -76.9872 271° West 243 280 6,000  Level Cleveland Center
10:06PM 43.1283 -77.0814 269° West 244 281 6,000 -300 Level Cleveland Center
10:07PM 43.1250 -77.1811 267° West 245 282 5,500 -900 Descending Cleveland Center
10:08PM 43.1239 -77.2836 269° West 259 298 4,200 -780 Descending Cleveland Center
10:09PM 43.1222 -77.3747 269° West 241 277 4,000 -300 Descending Cleveland Center
10:10PM 43.1206 -77.4631 269° West 238 274 3,700 -660 Descending Cleveland Center
10:11PM 43.1144 -77.5514 265° West 242 278 2,700 -780 Descending Cleveland Center
10:12PM 43.1019 -77.6289 258° West 184 212 2,200 -600 Descending Cleveland Center
10:13PM 43.0972 -77.6889 264° West 138 159 1,500 -720 Descending Cleveland Center
10:15PM 43.1167 -77.6667 20° North  Level FlightAware Approximate
10:22PM 43.1191 -77.6719 20° North  Level Estimated